Time;durP1;ratioP1;P1;durP2;ratioP2;P2;SDS_P1;SDS_P2;PMS_P1;PMS_P2;Temp;Humidity;BMP_temperature;BMP_pressure;BME280_temperature;BME280_humidity;BME280_pressure;Samples;Min_cycle;Max_cycle;Signal;HPM_P1;HPM_P2
2022/09/13 00:02:00;;;;;;;1.58;1.48;;;15.20;99.90;;;;;;5045999;28;20942;-75
2022/09/13 00:04:26;;;;;;;1.80;1.50;;;15.10;99.90;;;;;;5045015;28;20412;-74
2022/09/13 00:06:51;;;;;;;1.90;1.50;;;15.20;99.90;;;;;;5041514;28;20435;-74
2022/09/13 00:09:17;;;;;;;1.80;1.70;;;15.10;99.90;;;;;;5041915;28;20482;-73
2022/09/13 00:11:42;;;;;;;2.40;1.70;;;15.00;99.90;;;;;;5043600;28;20484;-72
2022/09/13 00:14:08;;;;;;;1.85;1.38;;;15.00;99.90;;;;;;5043823;28;20409;-73
2022/09/13 00:16:33;;;;;;;2.20;1.60;;;15.00;99.90;;;;;;5038442;28;20912;-73
2022/09/13 00:18:59;;;;;;;2.40;1.67;;;15.00;99.90;;;;;;5041704;28;20513;-73
2022/09/13 00:21:26;;;;;;;2.90;1.63;;;15.00;99.90;;;;;;5044468;28;20443;-72
2022/09/13 00:23:54;;;;;;;1.33;1.23;;;14.90;99.90;;;;;;5041819;28;20398;-73
2022/09/13 00:26:22;;;;;;;1.60;1.42;;;14.90;99.90;;;;;;5044706;28;20412;-72
2022/09/13 00:28:54;;;;;;;1.67;1.58;;;15.00;99.90;;;;;;5042112;28;20492;-73
2022/09/13 00:31:22;;;;;;;1.55;1.40;;;15.00;99.90;;;;;;5042145;28;20469;-72
2022/09/13 00:33:48;;;;;;;2.63;1.70;;;14.90;99.90;;;;;;5043638;28;20407;-72
2022/09/13 00:36:14;;;;;;;1.40;1.30;;;14.80;99.90;;;;;;5046002;28;20401;-73
2022/09/13 00:38:41;;;;;;;2.03;1.30;;;14.80;99.90;;;;;;5042763;28;20771;-73
2022/09/13 00:41:11;;;;;;;1.73;1.50;;;14.80;99.90;;;;;;5024768;28;20739;-73
2022/09/13 00:43:51;;;;;;;1.60;1.50;;;14.80;99.90;;;;;;5049220;28;20413;-72
2022/09/13 00:46:35;;;;;;;2.40;1.40;;;14.70;99.90;;;;;;5046346;28;20419;-73
2022/09/13 00:49:32;;;;;;;1.70;1.50;;;14.70;99.90;;;;;;5049613;28;20496;-72
2022/09/13 00:52:03;;;;;;;1.77;1.30;;;14.80;99.90;;;;;;5044679;28;20397;-72
2022/09/13 00:54:37;;;;;;;3.78;1.50;;;14.80;99.90;;;;;;5041000;28;20539;-72
2022/09/13 00:57:04;;;;;;;1.50;1.40;;;14.80;99.90;;;;;;5049112;28;20433;-72
2022/09/13 00:59:58;;;;;;;1.30;1.20;;;14.80;99.90;;;;;;5047041;28;20473;-74
2022/09/13 01:02:23;;;;;;;2.20;1.20;;;14.70;99.90;;;;;;5038185;28;20734;-72
2022/09/13 01:04:49;;;;;;;2.50;1.50;;;14.70;99.90;;;;;;5050414;28;20396;-73
2022/09/13 01:07:17;;;;;;;1.60;1.50;;;14.70;99.90;;;;;;5050195;28;20385;-72
2022/09/13 01:09:46;;;;;;;1.50;1.40;;;14.70;99.90;;;;;;5048903;28;20458;-73
2022/09/13 01:12:24;;;;;;;1.40;1.30;;;14.70;99.90;;;;;;5038145;28;20408;-73
2022/09/13 01:14:51;;;;;;;1.60;1.50;;;14.70;99.90;;;;;;5049303;28;20397;-72
2022/09/13 01:17:17;;;;;;;2.20;1.30;;;14.70;99.90;;;;;;5047552;28;20425;-72
2022/09/13 01:19:42;;;;;;;2.00;1.50;;;14.60;99.90;;;;;;5050345;28;20439;-73
2022/09/13 01:22:27;;;;;;;2.35;1.20;;;14.60;99.90;;;;;;5048011;28;20470;-72
2022/09/13 01:25:11;;;;;;;5.40;1.40;;;14.70;99.90;;;;;;5050005;28;20491;-72
2022/09/13 01:27:40;;;;;;;2.17;1.70;;;14.70;99.90;;;;;;5048897;28;20401;-73
2022/09/13 01:30:10;;;;;;;2.03;1.50;;;14.70;99.90;;;;;;5048426;28;20467;-73
2022/09/13 01:32:44;;;;;;;2.88;1.70;;;14.70;99.90;;;;;;5048754;28;20405;-74
2022/09/13 01:35:22;;;;;;;1.50;1.40;;;14.70;99.90;;;;;;5048175;28;20462;-73
2022/09/13 01:38:07;;;;;;;1.60;1.50;;;14.70;99.90;;;;;;5047784;28;20434;-74
2022/09/13 01:40:42;;;;;;;2.33;1.27;;;14.70;99.90;;;;;;5041543;28;20408;-74
2022/09/13 01:43:23;;;;;;;1.43;1.20;;;14.70;99.90;;;;;;5046393;28;20436;-73
2022/09/13 01:46:16;;;;;;;1.40;1.30;;;14.60;99.90;;;;;;5047667;28;20440;-73
2022/09/13 01:48:53;;;;;;;1.50;1.40;;;14.60;99.90;;;;;;5047023;28;20424;-73
2022/09/13 01:51:44;;;;;;;3.28;1.30;;;14.60;99.90;;;;;;5049137;28;20397;-73
2022/09/13 01:54:28;;;;;;;2.40;1.80;;;14.50;99.90;;;;;;5048737;28;20398;-73
2022/09/13 01:56:59;;;;;;;1.80;1.27;;;14.60;99.90;;;;;;5046967;28;20414;-73
2022/09/13 01:59:42;;;;;;;2.90;1.60;;;14.50;99.90;;;;;;5047527;28;20922;-73
2022/09/13 02:02:14;;;;;;;2.35;1.40;;;14.50;99.90;;;;;;5047278;28;20405;-73
2022/09/13 02:04:45;;;;;;;1.70;1.20;;;14.60;99.90;;;;;;5047410;28;20424;-73
2022/09/13 02:07:29;;;;;;;1.30;1.20;;;14.60;99.90;;;;;;5047837;28;20479;-73
2022/09/13 02:10:03;;;;;;;1.23;1.13;;;14.40;99.90;;;;;;5043517;28;20385;-73
2022/09/13 02:12:32;;;;;;;1.58;1.40;;;14.40;99.90;;;;;;5048482;28;20405;-73
2022/09/13 02:15:02;;;;;;;1.30;1.20;;;14.50;99.90;;;;;;5045843;28;20405;-73
2022/09/13 02:17:32;;;;;;;1.50;1.40;;;14.40;99.90;;;;;;5048206;28;20420;-73
2022/09/13 02:20:02;;;;;;;1.45;1.35;;;14.50;99.90;;;;;;5045013;28;22164;-73
2022/09/13 02:22:34;;;;;;;2.30;1.60;;;14.50;99.90;;;;;;5048444;28;20888;-73
2022/09/13 02:25:08;;;;;;;1.40;1.20;;;14.50;99.90;;;;;;5047052;28;20489;-73
2022/09/13 02:27:36;;;;;;;1.20;1.10;;;14.60;99.90;;;;;;5041143;28;20409;-73
2022/09/13 02:30:07;;;;;;;2.63;1.40;;;14.60;99.90;;;;;;5048282;28;20894;-73
2022/09/13 02:32:43;;;;;;;1.40;1.20;;;14.60;99.90;;;;;;5032226;28;20410;-73
2022/09/13 02:35:20;;;;;;;2.10;1.40;;;14.70;99.90;;;;;;5048871;28;20431;-73
2022/09/13 02:37:54;;;;;;;1.60;1.50;;;14.60;99.90;;;;;;5047645;28;20412;-73
2022/09/13 02:40:24;;;;;;;1.40;1.30;;;14.60;99.90;;;;;;5048449;28;20405;-73
2022/09/13 02:42:57;;;;;;;1.20;1.10;;;14.50;99.90;;;;;;5048328;28;20419;-73
2022/09/13 02:45:30;;;;;;;1.80;1.30;;;14.60;99.90;;;;;;5047910;28;20911;-73
2022/09/13 02:48:03;;;;;;;1.60;1.50;;;14.50;99.90;;;;;;5047087;28;20410;-73
2022/09/13 02:50:43;;;;;;;1.63;1.38;;;14.50;99.90;;;;;;5046200;28;22376;-73
2022/09/13 02:53:24;;;;;;;1.30;1.20;;;14.40;99.90;;;;;;5047751;28;20408;-73
2022/09/13 02:56:20;;;;;;;1.40;1.30;;;14.40;99.90;;;;;;5049676;28;20891;-73
2022/09/13 02:58:56;;;;;;;1.20;1.10;;;14.20;99.90;;;;;;5053032;28;20409;-73
2022/09/13 03:01:22;;;;;;;1.60;1.30;;;14.30;99.90;;;;;;5053152;28;20774;-73
2022/09/13 03:03:48;;;;;;;7.00;2.00;;;14.30;99.90;;;;;;5051972;28;20484;-73
2022/09/13 03:06:25;;;;;;;1.20;1.10;;;14.40;99.90;;;;;;5039665;28;20500;-73
2022/09/13 03:08:55;;;;;;;1.98;1.20;;;14.30;99.90;;;;;;5051756;28;20389;-73
2022/09/13 03:11:59;;;;;;;1.40;1.30;;;14.30;99.90;;;;;;5052393;28;20390;-73
2022/09/13 03:14:49;;;;;;;1.33;1.23;;;14.30;99.90;;;;;;5051969;28;21689;-73
2022/09/13 03:17:38;;;;;;;1.40;1.30;;;14.30;99.90;;;;;;5051711;28;20535;-73
2022/09/13 03:20:28;;;;;;;1.83;1.20;;;14.20;99.90;;;;;;5051707;28;20402;-73
2022/09/13 03:22:57;;;;;;;1.10;1.05;;;14.10;99.90;;;;;;5050050;28;20398;-73
2022/09/13 03:25:47;;;;;;;1.70;1.60;;;14.20;99.90;;;;;;5048889;28;20456;-73
2022/09/13 03:28:27;;;;;;;1.45;1.30;;;14.20;99.90;;;;;;5046757;28;20409;-72
2022/09/13 03:31:02;;;;;;;1.20;1.10;;;14.20;99.90;;;;;;5043210;28;20405;-73
2022/09/13 03:33:35;;;;;;;2.20;1.50;;;14.10;99.90;;;;;;5051682;28;20382;-72
2022/09/13 03:36:19;;;;;;;2.38;1.40;;;14.00;99.90;;;;;;5050375;28;20417;-72
2022/09/13 03:38:56;;;;;;;4.10;1.40;;;14.10;99.90;;;;;;5044675;28;20921;-72
2022/09/13 03:41:26;;;;;;;3.30;1.33;;;14.20;99.90;;;;;;5049947;28;20443;-72
2022/09/13 03:43:57;;;;;;;1.40;1.20;;;14.10;99.90;;;;;;5050851;28;20412;-72
2022/09/13 03:46:46;;;;;;;2.75;1.10;;;14.10;99.90;;;;;;5077860;22;20423;-72
2022/09/13 03:49:17;;;;;;;1.40;1.30;;;14.10;99.90;;;;;;5063308;28;20436;-71
2022/09/13 03:51:46;;;;;;;1.40;1.30;;;14.10;99.90;;;;;;5065451;28;20400;-72
2022/09/13 03:54:31;;;;;;;1.40;1.07;;;14.20;99.90;;;;;;5063220;28;20480;-71
2022/09/13 03:57:19;;;;;;;1.88;1.30;;;14.20;99.90;;;;;;5060745;28;20420;-72
2022/09/13 03:59:50;;;;;;;4.28;1.20;;;14.20;99.90;;;;;;5058191;28;20831;-71
2022/09/13 04:02:17;;;;;;;2.10;1.10;;;14.20;99.90;;;;;;5057509;28;20409;-71
2022/09/13 04:04:44;;;;;;;1.45;1.00;;;14.20;99.90;;;;;;5047225;28;20403;-72
2022/09/13 04:07:12;;;;;;;1.38;1.00;;;14.10;99.90;;;;;;5050089;28;20887;-72
2022/09/13 04:09:38;;;;;;;1.40;1.10;;;14.20;99.90;;;;;;5059406;28;20388;-72
2022/09/13 04:12:04;;;;;;;2.20;1.10;;;14.20;99.90;;;;;;5051100;28;20436;-72
2022/09/13 04:14:30;;;;;;;1.95;1.17;;;14.20;99.90;;;;;;5046343;28;20440;-72
2022/09/13 04:16:56;;;;;;;2.35;1.10;;;14.10;99.90;;;;;;5051870;28;20461;-72
2022/09/13 04:19:23;;;;;;;1.50;1.20;;;14.20;99.90;;;;;;5059442;28;21049;-72
2022/09/13 04:21:54;;;;;;;2.40;1.20;;;14.20;99.90;;;;;;5053961;28;20499;-72
2022/09/13 04:24:22;;;;;;;1.70;1.10;;;14.10;99.90;;;;;;5055312;28;20503;-72
2022/09/13 04:26:53;;;;;;;2.10;1.20;;;14.20;99.90;;;;;;5055221;28;20412;-72
2022/09/13 04:29:20;;;;;;;1.00;1.00;;;14.20;99.90;;;;;;5050163;28;20471;-71
2022/09/13 04:31:46;;;;;;;1.17;1.05;;;14.30;99.90;;;;;;5050685;28;20412;-72
2022/09/13 04:34:12;;;;;;;2.20;1.30;;;14.30;99.90;;;;;;5038163;28;20471;-72
2022/09/13 04:36:38;;;;;;;1.50;1.30;;;14.30;99.90;;;;;;5041615;28;20405;-72
2022/09/13 04:39:04;;;;;;;1.77;1.37;;;14.30;99.90;;;;;;5052355;28;20401;-72
2022/09/13 04:41:33;;;;;;;1.40;1.30;;;14.40;99.90;;;;;;5052426;28;20759;-72
2022/09/13 04:43:59;;;;;;;1.60;1.10;;;14.40;99.90;;;;;;5037237;28;20492;-71
2022/09/13 04:46:24;;;;;;;1.58;1.30;;;14.40;99.90;;;;;;5054798;28;20937;-72
2022/09/13 04:48:50;;;;;;;1.50;1.30;;;14.40;99.90;;;;;;5062673;28;20785;-72
2022/09/13 04:51:17;;;;;;;1.40;1.20;;;14.30;99.90;;;;;;5060855;28;20954;-71
2022/09/13 04:53:44;;;;;;;4.00;1.30;;;14.20;99.90;;;;;;5039869;28;20428;-72
2022/09/13 04:56:11;;;;;;;1.30;1.20;;;14.20;99.90;;;;;;5040411;28;20542;-72
2022/09/13 04:58:36;;;;;;;2.70;1.30;;;14.20;99.90;;;;;;5054373;28;20402;-72
2022/09/13 05:01:07;;;;;;;2.00;1.50;;;14.20;99.90;;;;;;5041201;28;20471;-71
2022/09/13 05:03:34;;;;;;;1.90;1.40;;;14.10;99.90;;;;;;5033912;28;20410;-72
2022/09/13 05:06:02;;;;;;;1.30;1.10;;;14.20;99.90;;;;;;5055538;28;20487;-71
2022/09/13 05:08:28;;;;;;;1.95;1.25;;;14.10;99.90;;;;;;5043565;28;20409;-71
2022/09/13 05:10:54;;;;;;;1.25;1.13;;;14.10;99.90;;;;;;5048343;28;20401;-71
2022/09/13 05:13:20;;;;;;;2.15;1.30;;;14.00;99.90;;;;;;5052938;28;20401;-73
2022/09/13 05:15:46;;;;;;;1.37;1.27;;;14.10;99.90;;;;;;5062244;28;20380;-72
2022/09/13 05:18:11;;;;;;;1.70;1.30;;;14.10;99.90;;;;;;5044156;28;20475;-72
2022/09/13 05:20:37;;;;;;;1.60;1.35;;;14.10;99.90;;;;;;5040447;28;20406;-73
2022/09/13 05:23:03;;;;;;;1.40;1.30;;;14.10;99.90;;;;;;5043828;28;20414;-72
2022/09/13 05:25:28;;;;;;;1.40;1.13;;;14.10;99.90;;;;;;5038517;28;20415;-72
2022/09/13 05:27:54;;;;;;;1.50;1.40;;;14.20;99.90;;;;;;5036277;28;20986;-71
2022/09/13 05:30:21;;;;;;;1.97;1.63;;;14.20;99.90;;;;;;5038706;28;20963;-71
2022/09/13 05:32:46;;;;;;;1.95;1.40;;;14.30;99.90;;;;;;5037232;28;20829;-71
2022/09/13 05:35:12;;;;;;;2.40;1.50;;;14.20;99.90;;;;;;5050125;28;20481;-70
2022/09/13 05:37:38;;;;;;;1.90;1.10;;;14.20;99.90;;;;;;5070153;28;20371;-71
2022/09/13 05:40:04;;;;;;;2.40;1.30;;;14.20;99.90;;;;;;5057938;28;20492;-71
2022/09/13 05:42:30;;;;;;;1.40;1.20;;;14.40;99.90;;;;;;5069955;28;20398;-71
2022/09/13 05:44:56;;;;;;;1.27;1.17;;;14.50;99.90;;;;;;5056666;28;20396;-71
2022/09/13 05:47:22;;;;;;;1.95;1.20;;;14.60;99.90;;;;;;5055696;28;20404;-71
2022/09/13 05:49:47;;;;;;;1.50;1.30;;;14.50;99.90;;;;;;5062115;28;20416;-71
2022/09/13 05:52:13;;;;;;;2.35;1.10;;;14.50;99.90;;;;;;5056779;28;20938;-71
2022/09/13 05:54:38;;;;;;;2.37;1.20;;;14.40;99.90;;;;;;5062178;28;20481;-71
2022/09/13 05:57:04;;;;;;;2.40;2.20;;;14.50;99.90;;;;;;5043307;28;20480;-72
2022/09/13 05:59:30;;;;;;;1.10;1.10;;;14.60;99.90;;;;;;5038013;28;20466;-73
2022/09/13 06:01:56;;;;;;;2.80;1.30;;;14.60;99.90;;;;;;5038750;28;20847;-72
2022/09/13 06:04:22;;;;;;;1.20;1.10;;;14.70;99.90;;;;;;5036971;28;20447;-71
2022/09/13 06:06:48;;;;;;;1.30;1.20;;;14.70;99.90;;;;;;5039520;28;20485;-72
2022/09/13 06:09:14;;;;;;;1.50;1.40;;;14.80;99.90;;;;;;5037536;28;20937;-71
2022/09/13 06:11:39;;;;;;;1.40;1.20;;;14.90;99.90;;;;;;5037848;28;20474;-71
2022/09/13 06:14:05;;;;;;;3.47;1.33;;;15.00;99.90;;;;;;5030083;28;20401;-71
2022/09/13 06:16:31;;;;;;;1.50;1.30;;;15.00;99.90;;;;;;5029976;28;20900;-72
2022/09/13 06:18:57;;;;;;;2.00;1.30;;;15.10;99.90;;;;;;5048457;28;20399;-72
2022/09/13 06:21:23;;;;;;;2.30;1.80;;;15.10;99.90;;;;;;5057744;28;20394;-71
2022/09/13 06:23:51;;;;;;;1.00;0.90;;;15.20;99.90;;;;;;5042250;28;21089;-71
2022/09/13 06:26:19;;;;;;;1.52;1.30;;;15.20;99.90;;;;;;5045434;28;20756;-71
2022/09/13 06:28:49;;;;;;;3.00;1.40;;;15.30;99.90;;;;;;5040754;28;20407;-71
2022/09/13 06:31:17;;;;;;;2.20;1.40;;;15.40;99.90;;;;;;5049376;28;20375;-72
2022/09/13 06:33:44;;;;;;;2.40;1.10;;;15.60;99.90;;;;;;5049685;28;21080;-71
2022/09/13 06:36:13;;;;;;;1.77;1.20;;;15.70;99.90;;;;;;5050911;28;20492;-71
2022/09/13 06:38:39;;;;;;;1.30;1.10;;;15.80;99.90;;;;;;5042249;28;20929;-72
2022/09/13 06:41:08;;;;;;;1.53;1.00;;;15.80;99.90;;;;;;5041243;28;20889;-71
2022/09/13 06:43:34;;;;;;;1.30;1.20;;;15.80;99.90;;;;;;5042951;28;20506;-71
2022/09/13 06:46:08;;;;;;;1.42;1.20;;;15.90;99.90;;;;;;5037879;28;20434;-70
2022/09/13 06:48:38;;;;;;;5.82;2.28;;;15.90;99.90;;;;;;5043272;28;20389;-71
2022/09/13 06:51:09;;;;;;;2.35;1.50;;;16.00;99.90;;;;;;5041843;28;20883;-70
2022/09/13 06:53:36;;;;;;;1.70;1.60;;;16.30;99.90;;;;;;5042913;28;20417;-72
2022/09/13 06:56:08;;;;;;;1.42;1.30;;;16.60;99.90;;;;;;5044555;28;20459;-72
2022/09/13 06:58:35;;;;;;;1.83;1.15;;;16.80;99.90;;;;;;5048957;28;20388;-72
2022/09/13 07:01:19;;;;;;;2.78;1.55;;;16.90;99.90;;;;;;5049741;28;20825;-71
2022/09/13 07:03:47;;;;;;;1.80;1.20;;;17.10;99.90;;;;;;5040037;28;20408;-71
2022/09/13 07:06:15;;;;;;;1.30;1.20;;;17.20;99.90;;;;;;5044664;28;20419;-71
2022/09/13 07:08:43;;;;;;;1.60;1.20;;;17.30;99.90;;;;;;5050575;28;20381;-71
2022/09/13 07:11:11;;;;;;;2.13;1.48;;;17.50;99.90;;;;;;5050885;28;20894;-72
2022/09/13 07:13:37;;;;;;;1.50;1.08;;;17.60;99.90;;;;;;5052147;28;20381;-72
2022/09/13 07:16:23;;;;;;;1.52;1.20;;;17.70;99.90;;;;;;5052775;28;20454;-72
2022/09/13 07:18:59;;;;;;;3.90;1.40;;;17.80;99.90;;;;;;5052753;28;20502;-72
2022/09/13 07:21:25;;;;;;;1.50;1.40;;;17.90;99.90;;;;;;5052357;28;20417;-72
2022/09/13 07:23:52;;;;;;;1.60;1.20;;;18.00;99.90;;;;;;5052253;28;20436;-73
2022/09/13 07:26:18;;;;;;;1.70;1.02;;;18.10;99.90;;;;;;5052631;28;20816;-73
2022/09/13 07:28:46;;;;;;;2.00;1.30;;;18.20;99.90;;;;;;5052294;28;20386;-73
2022/09/13 07:31:21;;;;;;;1.25;1.15;;;18.40;99.90;;;;;;5052551;28;20446;-72
2022/09/13 07:33:51;;;;;;;2.72;1.20;;;18.50;99.90;;;;;;5052023;28;20468;-73
2022/09/13 07:36:17;;;;;;;1.20;1.00;;;18.60;99.90;;;;;;5052314;28;20397;-73
2022/09/13 07:38:47;;;;;;;3.85;1.65;;;18.60;99.90;;;;;;5049106;28;20385;-73
2022/09/13 07:41:15;;;;;;;2.80;1.40;;;18.70;99.90;;;;;;5049719;28;20450;-72
2022/09/13 07:43:40;;;;;;;1.30;1.20;;;18.80;99.90;;;;;;5047152;28;20409;-73
2022/09/13 07:46:12;;;;;;;1.70;1.40;;;18.80;99.90;;;;;;5044255;28;20436;-73
2022/09/13 07:48:40;;;;;;;1.23;1.13;;;18.90;99.90;;;;;;5051991;28;20415;-73
2022/09/13 07:51:16;;;;;;;1.67;1.10;;;18.90;99.90;;;;;;5046544;28;20401;-72
2022/09/13 07:53:44;;;;;;;6.20;2.00;;;19.00;99.90;;;;;;5044035;28;20868;-72
2022/09/13 07:56:11;;;;;;;1.50;1.38;;;19.00;99.90;;;;;;5046782;28;20418;-73
2022/09/13 07:58:38;;;;;;;1.40;1.30;;;19.10;99.90;;;;;;5048603;28;20491;-73
2022/09/13 08:01:15;;;;;;;3.00;1.58;;;19.20;99.90;;;;;;5051681;28;20428;-72
2022/09/13 08:03:41;;;;;;;1.30;1.20;;;19.30;99.90;;;;;;5051479;28;20811;-72
2022/09/13 08:06:08;;;;;;;1.40;1.30;;;19.30;99.90;;;;;;5051636;28;20433;-73
2022/09/13 08:08:34;;;;;;;1.98;1.30;;;19.40;99.90;;;;;;5045738;28;20433;-72
2022/09/13 08:11:02;;;;;;;1.50;1.40;;;19.50;99.90;;;;;;5051271;28;20983;-72
2022/09/13 08:13:28;;;;;;;1.30;1.20;;;19.60;99.90;;;;;;5051089;28;20956;-72
2022/09/13 08:15:54;;;;;;;2.30;1.25;;;19.70;99.90;;;;;;5051666;28;20476;-72
2022/09/13 08:18:20;;;;;;;2.17;1.35;;;19.70;99.90;;;;;;5051425;28;20971;-72
2022/09/13 08:20:46;;;;;;;2.13;1.27;;;19.90;99.90;;;;;;5047829;28;20401;-72
2022/09/13 08:23:13;;;;;;;1.30;1.20;;;20.10;99.90;;;;;;5051140;28;20439;-72
2022/09/13 08:25:39;;;;;;;2.45;1.30;;;20.20;99.90;;;;;;5050906;28;20484;-73
2022/09/13 08:28:07;;;;;;;1.65;1.40;;;20.40;99.90;;;;;;5048791;28;20401;-73
2022/09/13 08:30:35;;;;;;;2.38;2.10;;;20.50;99.90;;;;;;5038090;28;21087;-73
2022/09/13 08:33:05;;;;;;;2.17;1.60;;;20.80;99.90;;;;;;5048376;28;20393;-73
2022/09/13 08:35:32;;;;;;;5.30;4.78;;;20.80;99.90;;;;;;5046007;28;20915;-73
2022/09/13 08:37:58;;;;;;;1.30;1.20;;;20.90;99.90;;;;;;5051108;28;20464;-73
2022/09/13 08:40:30;;;;;;;2.00;1.30;;;21.10;99.90;;;;;;5043987;28;20482;-72
2022/09/13 08:43:23;;;;;;;1.30;1.20;;;21.20;99.90;;;;;;5045086;28;20887;-72
2022/09/13 08:46:12;;;;;;;1.40;1.02;;;21.40;99.90;;;;;;5040510;28;20413;-71
2022/09/13 08:48:43;;;;;;;1.40;1.30;;;21.60;99.90;;;;;;5038875;28;20478;-73
2022/09/13 08:51:40;;;;;;;1.30;1.20;;;21.80;99.90;;;;;;5039111;28;20676;-72
2022/09/13 08:54:10;;;;;;;2.78;1.92;;;22.10;99.90;;;;;;5028966;28;20430;-73
2022/09/13 08:56:52;;;;;;;3.05;1.80;;;22.30;99.90;;;;;;5035421;28;20971;-73
2022/09/13 08:59:32;;;;;;;3.05;1.90;;;22.40;99.90;;;;;;5047898;28;20780;-72
2022/09/13 09:02:47;;;;;;;2.60;2.10;;;22.40;99.90;;;;;;5050509;28;20430;-72
2022/09/13 09:05:22;;;;;;;3.30;2.00;;;22.30;99.90;;;;;;5041986;28;20428;-75
2022/09/13 09:07:52;;;;;;;3.05;1.85;;;22.30;99.90;;;;;;5050158;28;20468;-75
2022/09/13 09:10:22;;;;;;;2.20;1.98;;;22.30;99.90;;;;;;5050192;28;20507;-75
2022/09/13 09:12:53;;;;;;;2.30;1.70;;;22.40;99.90;;;;;;5050326;28;20434;-75
2022/09/13 09:15:26;;;;;;;2.72;2.00;;;22.40;99.90;;;;;;5050228;28;20380;-76
2022/09/13 09:18:02;;;;;;;2.95;1.95;;;22.60;99.90;;;;;;5050522;28;20386;-75
2022/09/13 09:20:36;;;;;;;4.50;2.30;;;22.70;99.90;;;;;;5045888;28;20811;-75
2022/09/13 09:23:17;;;;;;;3.50;1.90;;;22.90;99.90;;;;;;5039786;28;20398;-75
2022/09/13 09:25:42;;;;;;;3.08;1.75;;;22.70;99.90;;;;;;5039001;28;20772;-75
2022/09/13 09:28:13;;;;;;;3.57;1.70;;;22.60;99.90;;;;;;5048401;28;20381;-73
2022/09/13 09:31:01;;;;;;;2.60;1.67;;;22.50;99.90;;;;;;5044955;28;20397;-72
2022/09/13 09:33:41;;;;;;;2.60;1.70;;;22.40;99.90;;;;;;5049421;28;20392;-73
2022/09/13 09:36:38;;;;;;;3.47;1.70;;;22.50;99.90;;;;;;5053103;28;20455;-72
2022/09/13 09:39:05;;;;;;;2.72;1.70;;;22.40;99.90;;;;;;5047902;28;20410;-74
2022/09/13 09:41:35;;;;;;;3.38;2.10;;;22.40;99.90;;;;;;5038456;28;20428;-72
2022/09/13 09:44:17;;;;;;;1.80;1.70;;;22.50;99.90;;;;;;5045421;28;20411;-72
2022/09/13 09:52:27;;;;;;;1.67;1.58;;;22.60;99.90;;;;;;5062957;28;20430;-72
2022/09/13 09:54:58;;;;;;;2.42;1.60;;;22.60;99.90;;;;;;5060063;28;20401;-72
2022/09/13 09:57:49;;;;;;;1.77;1.40;;;22.60;99.90;;;;;;5059963;28;20830;-73
2022/09/13 10:00:15;;;;;;;3.40;1.60;;;22.80;99.90;;;;;;5056475;28;20441;-74
2022/09/13 10:02:46;;;;;;;4.82;1.90;;;22.90;99.90;;;;;;5060442;28;20393;-73
2022/09/13 10:05:12;;;;;;;2.40;1.70;;;23.00;99.90;;;;;;5043730;28;20832;-72
2022/09/13 10:07:39;;;;;;;2.90;1.30;;;23.30;99.90;;;;;;5049270;28;20960;-73
2022/09/13 10:10:21;;;;;;;1.90;1.35;;;23.40;99.90;;;;;;5043510;28;20409;-73
2022/09/13 10:12:51;;;;;;;2.42;1.42;;;23.40;99.90;;;;;;5015980;28;20395;-73
2022/09/13 10:15:19;;;;;;;1.88;1.50;;;23.40;99.90;;;;;;5032618;28;20477;-73
2022/09/13 10:18:08;;;;;;;3.10;1.63;;;23.40;99.90;;;;;;5041064;28;20440;-73
2022/09/13 10:20:33;;;;;;;2.78;1.50;;;23.60;99.90;;;;;;5060567;28;20446;-73
2022/09/13 10:23:19;;;;;;;3.17;1.70;;;23.70;99.90;;;;;;5059090;28;20421;-73
2022/09/13 10:25:56;;;;;;;2.47;1.20;;;23.80;99.90;;;;;;5061786;28;20405;-73
2022/09/13 10:28:24;;;;;;;1.70;1.30;;;23.90;99.90;;;;;;5060399;28;20441;-73
2022/09/13 10:31:08;;;;;;;1.60;1.50;;;24.10;99.90;;;;;;5044605;28;20408;-73
2022/09/13 10:33:37;;;;;;;3.13;1.75;;;24.40;99.90;;;;;;5042575;28;20769;-73
2022/09/13 10:36:11;;;;;;;2.28;1.40;;;24.50;99.90;;;;;;5055862;28;20755;-73
2022/09/13 10:38:43;;;;;;;2.50;1.50;;;24.70;99.90;;;;;;5040668;28;20917;-72
2022/09/13 10:41:20;;;;;;;2.00;1.50;;;24.70;99.60;;;;;;5053398;28;20442;-73
2022/09/13 10:43:46;;;;;;;2.30;1.10;;;24.80;98.80;;;;;;5026442;28;20500;-73
2022/09/13 10:46:20;;;;;;;2.70;1.30;;;25.00;98.10;;;;;;5053018;28;20441;-73
2022/09/13 10:48:54;;;;;;;1.95;1.20;;;25.00;97.70;;;;;;5053136;28;20775;-73
2022/09/13 10:51:26;;;;;;;2.60;1.40;;;25.10;97.10;;;;;;5048145;28;20413;-73
2022/09/13 10:54:17;;;;;;;1.85;1.50;;;25.50;94.90;;;;;;5052208;28;20386;-73
2022/09/13 10:56:44;;;;;;;2.60;1.33;;;25.70;96.10;;;;;;5033157;28;20386;-73
2022/09/13 10:59:28;;;;;;;1.75;1.35;;;25.90;94.10;;;;;;5052120;28;20396;-73
2022/09/13 11:02:29;;;;;;;4.85;1.80;;;26.00;93.90;;;;;;5052811;28;20393;-73
2022/09/13 11:05:05;;;;;;;1.63;1.10;;;26.20;92.40;;;;;;5008318;28;20484;-73
2022/09/13 11:07:50;;;;;;;1.40;1.30;;;26.50;92.60;;;;;;5052481;28;20390;-73
2022/09/13 11:10:52;;;;;;;2.00;1.30;;;26.90;91.70;;;;;;5052866;28;20376;-73
2022/09/13 11:13:29;;;;;;;2.65;1.40;;;27.00;88.40;;;;;;5042676;28;20449;-73
2022/09/13 11:16:08;;;;;;;1.10;1.00;;;27.30;88.30;;;;;;5039030;28;20484;-73
2022/09/13 11:19:02;;;;;;;1.20;1.10;;;27.30;88.10;;;;;;5041490;28;20465;-73
2022/09/13 11:21:53;;;;;;;1.92;1.05;;;27.70;88.20;;;;;;5045116;28;20417;-73
2022/09/13 11:24:45;;;;;;;2.70;1.10;;;28.20;83.00;;;;;;5048205;28;20417;-73
2022/09/13 11:27:26;;;;;;;2.00;1.30;;;28.60;82.00;;;;;;5044918;28;20489;-73
2022/09/13 11:30:09;;;;;;;1.98;1.00;;;29.30;79.20;;;;;;5046228;28;20463;-73
2022/09/13 11:33:11;;;;;;;2.00;1.00;;;30.30;73.40;;;;;;5044335;28;20850;-73
2022/09/13 11:35:58;;;;;;;1.25;1.10;;;30.70;71.50;;;;;;5049860;28;20948;-73
2022/09/13 11:38:44;;;;;;;2.15;1.40;;;30.30;68.60;;;;;;5044355;28;20468;-73
2022/09/13 11:41:31;;;;;;;1.40;1.00;;;30.20;66.10;;;;;;5045882;28;20407;-72
2022/09/13 11:44:06;;;;;;;1.20;1.00;;;30.10;66.60;;;;;;5047118;28;20417;-73
2022/09/13 11:46:53;;;;;;;1.80;1.00;;;29.80;67.70;;;;;;5045657;28;20632;-73
2022/09/13 11:49:57;;;;;;;1.30;1.00;;;29.20;70.20;;;;;;5043284;28;20955;-73
2022/09/13 11:52:35;;;;;;;1.80;0.80;;;29.10;70.20;;;;;;5025259;28;20478;-73
2022/09/13 11:55:21;;;;;;;0.90;0.80;;;29.00;72.20;;;;;;5040825;28;20503;-73
2022/09/13 11:57:57;;;;;;;1.05;0.90;;;28.60;71.50;;;;;;5041067;28;20895;-73
2022/09/13 12:00:47;;;;;;;0.98;0.88;;;27.90;73.40;;;;;;5060561;28;20396;-73
2022/09/13 12:03:35;;;;;;;1.30;0.90;;;27.90;76.70;;;;;;5051005;28;20397;-73
2022/09/13 12:06:10;;;;;;;2.70;1.48;;;27.90;75.60;;;;;;5040269;28;20906;-73
2022/09/13 12:08:41;;;;;;;1.10;1.00;;;28.00;76.60;;;;;;5040358;28;20403;-73
2022/09/13 12:11:30;;;;;;;2.58;1.20;;;28.00;76.80;;;;;;5043819;28;20521;-73
2022/09/13 12:14:03;;;;;;;1.23;0.70;;;27.70;78.90;;;;;;5040104;28;20401;-73
2022/09/13 12:16:36;;;;;;;1.20;1.10;;;27.70;77.40;;;;;;5024672;28;20409;-73
2022/09/13 12:19:16;;;;;;;1.08;0.82;;;27.60;77.80;;;;;;5038452;28;20425;-73
2022/09/13 12:21:43;;;;;;;1.30;0.90;;;27.60;77.10;;;;;;5049504;28;20401;-73
2022/09/13 12:24:14;;;;;;;1.20;1.00;;;27.50;77.50;;;;;;5051092;28;20398;-74
2022/09/13 12:26:58;;;;;;;1.60;0.90;;;27.40;78.60;;;;;;5040367;28;20826;-74
2022/09/13 12:29:31;;;;;;;2.10;1.00;;;27.50;79.80;;;;;;5042700;28;20720;-73
2022/09/13 12:32:04;;;;;;;2.60;1.10;;;27.50;78.30;;;;;;5050942;28;20385;-73
2022/09/13 12:35:02;;;;;;;1.70;1.00;;;27.60;79.20;;;;;;5050716;28;20417;-73
2022/09/13 12:37:55;;;;;;;2.17;1.20;;;27.50;79.80;;;;;;5048647;28;20446;-73
2022/09/13 12:40:44;;;;;;;1.90;1.00;;;27.40;81.20;;;;;;5045977;28;20515;-73
2022/09/13 12:43:25;;;;;;;2.17;1.23;;;27.40;82.20;;;;;;5041596;28;20387;-73
2022/09/13 12:45:50;;;;;;;2.30;1.20;;;27.40;82.10;;;;;;5033091;28;20506;-73
2022/09/13 12:48:40;;;;;;;2.40;0.98;;;27.50;82.70;;;;;;5044224;28;20492;-74
2022/09/13 12:51:14;;;;;;;1.02;0.90;;;27.50;81.00;;;;;;5045979;28;21005;-73
2022/09/13 12:54:04;;;;;;;1.25;1.15;;;27.60;81.30;;;;;;5049974;28;20389;-73
2022/09/13 12:56:43;;;;;;;1.70;1.40;;;27.60;81.80;;;;;;5050493;28;20424;-73
2022/09/13 12:59:41;;;;;;;1.20;1.10;;;27.60;81.90;;;;;;5032047;28;20398;-73
2022/09/13 13:02:41;;;;;;;1.92;1.20;;;27.50;83.80;;;;;;5030946;28;20398;-74
2022/09/13 13:05:28;;;;;;;2.50;1.20;;;27.60;84.10;;;;;;4993364;28;20821;-74
2022/09/13 13:08:01;;;;;;;3.08;1.30;;;27.70;85.40;;;;;;5050479;28;20416;-73
2022/09/13 13:10:36;;;;;;;3.47;1.67;;;27.60;85.60;;;;;;5070271;28;20376;-73
2022/09/13 13:13:11;;;;;;;2.47;1.58;;;27.50;85.30;;;;;;5043864;28;20419;-73
2022/09/13 13:15:37;;;;;;;4.45;1.20;;;27.40;84.90;;;;;;5050931;28;20439;-73
2022/09/13 13:18:27;;;;;;;2.60;1.40;;;27.80;83.70;;;;;;5061159;28;20388;-73
2022/09/13 13:20:52;;;;;;;2.40;1.55;;;28.00;81.80;;;;;;5064522;28;20438;-74
2022/09/13 13:23:28;;;;;;;1.60;1.50;;;28.30;80.60;;;;;;5030856;28;20401;-73
2022/09/13 13:26:01;;;;;;;1.70;1.30;;;28.30;79.50;;;;;;5028130;28;20860;-73
2022/09/13 13:28:42;;;;;;;2.40;1.30;;;28.50;79.80;;;;;;5050319;28;20380;-73